Time;durP1;ratioP1;P1;durP2;ratioP2;P2;SDS_P1;SDS_P2;PMS_P1;PMS_P2;Temp;Humidity;BMP_temperature;BMP_pressure;BME280_temperature;BME280_humidity;BME280_pressure;Samples;Min_cycle;Max_cycle;Signal;HPM_P1;HPM_P2
2021/12/12 00:00:36;;;;;;;72.53;25.97;;;2.00;96.00;;;;;;5052022;28;20231;-92
2021/12/12 00:03:15;;;;;;;63.07;24.67;;;2.00;96.00;;;;;;5051572;28;20210;-92
2021/12/12 00:05:47;;;;;;;116.43;36.60;;;2.00;96.10;;;;;;5051904;28;20188;-91
2021/12/12 00:08:14;;;;;;;84.47;28.40;;;2.00;96.10;;;;;;5052720;28;20543;-91
2021/12/12 00:10:43;;;;;;;104.57;33.13;;;2.00;96.10;;;;;;5051842;28;20244;-91
2021/12/12 00:13:23;;;;;;;100.23;33.13;;;2.00;96.10;;;;;;5052101;28;20205;-92
2021/12/12 00:15:49;;;;;;;114.00;34.87;;;1.90;96.20;;;;;;5051820;28;20203;-91
2021/12/12 00:18:15;;;;;;;96.60;32.00;;;2.00;96.20;;;;;;5051993;28;20214;-92
2021/12/12 00:20:43;;;;;;;68.90;23.23;;;2.00;96.20;;;;;;5051707;28;20189;-91
2021/12/12 00:23:09;;;;;;;58.33;22.87;;;2.00;96.20;;;;;;5051618;28;20196;-92
2021/12/12 00:25:41;;;;;;;79.60;27.43;;;2.00;96.30;;;;;;5051745;28;20251;-91
2021/12/12 00:28:08;;;;;;;83.47;27.90;;;2.00;96.30;;;;;;5051653;28;20641;-92
2021/12/12 00:30:34;;;;;;;109.40;33.00;;;2.00;96.30;;;;;;5051612;28;20264;-91
2021/12/12 00:33:01;;;;;;;95.10;28.33;;;2.00;96.30;;;;;;5051614;28;20283;-91
2021/12/12 00:35:26;;;;;;;84.57;28.60;;;2.00;96.30;;;;;;5055373;28;20177;-91
2021/12/12 00:37:58;;;;;;;85.47;26.17;;;2.00;96.30;;;;;;5055411;28;20718;-91
2021/12/12 00:40:33;;;;;;;131.33;36.70;;;2.00;96.30;;;;;;5055175;28;20190;-91
2021/12/12 00:43:01;;;;;;;121.73;34.37;;;2.00;96.40;;;;;;5055330;28;20198;-91
2021/12/12 00:45:28;;;;;;;147.30;39.23;;;2.00;96.40;;;;;;5055205;28;20201;-92
2021/12/12 00:47:55;;;;;;;150.73;41.40;;;2.10;96.40;;;;;;5057164;28;20169;-91
2021/12/12 00:50:32;;;;;;;169.17;44.90;;;2.10;96.40;;;;;;5055729;28;20209;-91
2021/12/12 00:53:00;;;;;;;140.20;38.63;;;2.20;96.40;;;;;;5055424;28;20194;-91
2021/12/12 00:55:26;;;;;;;95.50;26.00;;;2.10;96.40;;;;;;5055039;28;20183;-91
2021/12/12 00:57:53;;;;;;;187.80;48.07;;;2.20;96.40;;;;;;5055069;28;20250;-91
2021/12/12 01:00:25;;;;;;;176.13;43.17;;;2.20;96.40;;;;;;5054988;28;20174;-91
2021/12/12 01:02:52;;;;;;;173.40;42.60;;;2.20;96.40;;;;;;5054950;28;20168;-91
2021/12/12 01:05:19;;;;;;;159.70;41.20;;;2.20;96.40;;;;;;5055032;28;20226;-91
2021/12/12 01:07:48;;;;;;;102.17;28.33;;;2.20;96.40;;;;;;5054916;28;20183;-91
2021/12/12 01:10:34;;;;;;;181.70;45.27;;;2.20;96.40;;;;;;5063018;23;20334;-93
2021/12/12 01:13:04;;;;;;;106.53;28.07;;;2.30;96.40;;;;;;5036397;28;20168;-92
2021/12/12 01:15:38;;;;;;;158.27;43.37;;;2.30;96.40;;;;;;5036441;28;20162;-92
2021/12/12 01:18:09;;;;;;;185.83;44.60;;;2.30;96.40;;;;;;5035750;28;20187;-92
2021/12/12 01:20:40;;;;;;;114.23;30.23;;;2.30;96.40;;;;;;5035384;28;20193;-91
2021/12/12 01:23:14;;;;;;;148.13;41.20;;;2.30;96.40;;;;;;5035283;28;20180;-92
2021/12/12 01:25:44;;;;;;;140.73;40.97;;;2.30;96.40;;;;;;5035522;28;20271;-92
2021/12/12 01:28:16;;;;;;;205.80;48.70;;;2.30;96.40;;;;;;5035405;28;20158;-92
2021/12/12 01:30:43;;;;;;;162.90;43.63;;;2.30;96.40;;;;;;5036429;28;20187;-92
2021/12/12 01:33:10;;;;;;;172.83;43.03;;;2.40;96.50;;;;;;5035172;28;20181;-92
2021/12/12 01:35:40;;;;;;;110.17;30.60;;;2.40;96.40;;;;;;5035711;28;20176;-92
2021/12/12 01:40:57;;;;;;;112.97;30.70;;;2.40;96.40;;;;;;5037222;28;20217;-92
2021/12/12 01:43:32;;;;;;;195.77;48.27;;;2.40;96.40;;;;;;5035087;28;20173;-91
2021/12/12 01:46:05;;;;;;;157.50;40.33;;;2.40;96.40;;;;;;5035597;28;20197;-92
2021/12/12 01:48:40;;;;;;;149.57;40.33;;;2.40;96.30;;;;;;5035460;28;20163;-92
2021/12/12 01:51:08;;;;;;;147.27;44.47;;;2.50;96.30;;;;;;5036951;28;20654;-91
2021/12/12 01:53:38;;;;;;;135.57;40.97;;;2.50;96.30;;;;;;5035248;28;20176;-92
2021/12/12 01:56:29;;;;;;;145.30;35.47;;;2.50;96.30;;;;;;5035328;28;20302;-92
2021/12/12 01:59:01;;;;;;;127.40;32.97;;;2.50;96.20;;;;;;5034589;28;20571;-92
2021/12/12 02:01:40;;;;;;;96.93;23.70;;;2.50;96.20;;;;;;5034467;28;20272;-92
2021/12/12 02:04:20;;;;;;;147.53;41.03;;;2.50;96.10;;;;;;5035762;28;20226;-92
2021/12/12 02:06:48;;;;;;;133.87;36.70;;;2.50;96.10;;;;;;5035825;28;20168;-91
2021/12/12 02:09:15;;;;;;;146.10;39.17;;;2.50;96.10;;;;;;5034753;28;20248;-91
2021/12/12 02:11:43;;;;;;;140.83;43.40;;;2.50;96.10;;;;;;5035776;28;20203;-92
2021/12/12 02:14:12;;;;;;;127.23;38.03;;;2.60;96.00;;;;;;5037393;28;20228;-92
2021/12/12 02:16:42;;;;;;;133.30;39.57;;;2.60;96.00;;;;;;5035571;28;20177;-93
2021/12/12 02:19:10;;;;;;;142.60;39.87;;;2.60;95.90;;;;;;5034223;28;20278;-92
2021/12/12 02:21:56;;;;;;;83.83;28.23;;;2.70;95.90;;;;;;5034869;28;20274;-92
2021/12/12 02:35:43;;;;;;;133.40;42.97;;;2.70;95.50;;;;;;5035694;28;20647;-92
2021/12/12 02:38:13;;;;;;;87.90;29.00;;;2.80;95.40;;;;;;5033663;28;20176;-92
2021/12/12 02:40:51;;;;;;;139.07;45.20;;;2.80;95.30;;;;;;5033538;28;20701;-92
2021/12/12 02:43:21;;;;;;;90.17;31.23;;;2.80;95.20;;;;;;5034673;28;20158;-92
2021/12/12 02:45:48;;;;;;;98.77;34.57;;;2.80;95.20;;;;;;5034616;28;20199;-91
2021/12/12 02:48:19;;;;;;;103.93;35.37;;;2.80;95.10;;;;;;5033506;28;20641;-92
2021/12/12 02:50:49;;;;;;;105.47;38.83;;;2.80;95.10;;;;;;5033299;28;20249;-92
2021/12/12 02:53:22;;;;;;;87.77;27.83;;;2.80;95.10;;;;;;5034609;28;20167;-92
2021/12/12 02:55:53;;;;;;;126.17;42.17;;;2.80;95.00;;;;;;5034530;28;20167;-92
2021/12/12 02:58:21;;;;;;;116.57;39.37;;;2.80;95.00;;;;;;5033209;28;20533;-92
2021/12/12 03:01:17;;;;;;;102.03;36.57;;;2.80;95.00;;;;;;5032914;28;20684;-92
2021/12/12 03:03:45;;;;;;;131.90;42.00;;;2.80;95.00;;;;;;5034573;28;20199;-92
2021/12/12 03:06:17;;;;;;;110.03;38.77;;;2.80;94.90;;;;;;5033054;28;20176;-92
2021/12/12 03:08:50;;;;;;;127.57;45.23;;;2.80;95.00;;;;;;5034216;28;20213;-92
2021/12/12 03:11:17;;;;;;;132.37;46.70;;;2.80;95.00;;;;;;5034720;28;20516;-92
2021/12/12 03:13:43;;;;;;;135.23;45.47;;;2.80;95.00;;;;;;5033227;28;20173;-92
2021/12/12 03:16:10;;;;;;;129.53;43.73;;;2.80;95.00;;;;;;5033064;28;20728;-92
2021/12/12 03:18:41;;;;;;;135.97;43.73;;;2.80;95.00;;;;;;5033969;28;20218;-92
2021/12/12 03:21:17;;;;;;;140.70;47.17;;;2.80;95.00;;;;;;5034139;28;20192;-92
2021/12/12 03:23:50;;;;;;;139.40;46.10;;;2.80;95.00;;;;;;5033147;28;20158;-92
2021/12/12 03:26:18;;;;;;;134.87;45.57;;;2.80;95.00;;;;;;5034243;28;20185;-92
2021/12/12 03:28:47;;;;;;;129.07;46.67;;;2.80;95.00;;;;;;5035366;28;20176;-92
2021/12/12 03:31:22;;;;;;;143.23;47.00;;;2.80;95.00;;;;;;5033598;28;20173;-92
2021/12/12 03:33:48;;;;;;;136.03;45.97;;;2.80;95.00;;;;;;5032870;28;20168;-92
2021/12/12 03:36:15;;;;;;;136.37;45.10;;;2.80;95.00;;;;;;5033145;28;20568;-92
2021/12/12 03:38:48;;;;;;;150.50;49.20;;;2.90;95.00;;;;;;5035373;28;20179;-92
2021/12/12 03:41:18;;;;;;;142.93;49.53;;;2.90;95.00;;;;;;5034203;28;20172;-92
2021/12/12 03:43:50;;;;;;;126.27;44.07;;;2.90;95.00;;;;;;5033809;28;20658;-92
2021/12/12 03:46:16;;;;;;;138.97;47.93;;;2.90;95.00;;;;;;5034028;28;20171;-92
2021/12/12 03:48:43;;;;;;;142.83;47.67;;;3.00;94.90;;;;;;5033581;28;20640;-92
2021/12/12 03:51:10;;;;;;;114.37;39.77;;;3.00;94.90;;;;;;5034139;28;20175;-92
2021/12/12 03:53:38;;;;;;;131.53;46.40;;;3.00;94.80;;;;;;5032792;28;20180;-92
2021/12/12 03:56:05;;;;;;;123.27;43.17;;;3.00;94.80;;;;;;5033752;28;20254;-92
2021/12/12 03:58:31;;;;;;;114.57;39.70;;;3.10;94.80;;;;;;5033715;28;20183;-92
2021/12/12 04:01:11;;;;;;;137.23;50.63;;;3.10;94.70;;;;;;5032505;28;20181;-92
2021/12/12 04:03:39;;;;;;;100.17;37.87;;;3.10;94.70;;;;;;5033916;28;20164;-92
2021/12/12 04:06:07;;;;;;;126.03;43.87;;;3.10;94.70;;;;;;5032170;28;20207;-92
2021/12/12 04:08:37;;;;;;;127.80;47.70;;;3.20;94.70;;;;;;5032992;28;20183;-91
2021/12/12 04:11:06;;;;;;;113.60;42.07;;;3.20;94.60;;;;;;5035896;28;20198;-92
2021/12/12 04:13:38;;;;;;;121.80;47.87;;;3.30;94.60;;;;;;5036334;28;20192;-92
2021/12/12 04:16:04;;;;;;;111.93;39.03;;;3.30;94.50;;;;;;5036332;28;20247;-92
2021/12/12 04:18:30;;;;;;;108.37;42.63;;;3.30;94.40;;;;;;5036349;28;20193;-92
2021/12/12 04:20:56;;;;;;;108.27;42.60;;;3.30;94.40;;;;;;5037879;28;20181;-92
2021/12/12 04:23:24;;;;;;;114.00;45.77;;;3.30;94.40;;;;;;5037307;28;20180;-92
2021/12/12 04:25:50;;;;;;;127.23;46.27;;;3.30;94.40;;;;;;5038040;28;20574;-92
2021/12/12 04:28:16;;;;;;;124.90;49.90;;;3.30;94.40;;;;;;5036345;28;20176;-92
2021/12/12 04:30:43;;;;;;;126.83;50.43;;;3.30;94.40;;;;;;5036873;28;20239;-92
2021/12/12 04:33:09;;;;;;;126.23;42.70;;;3.40;94.40;;;;;;5037783;28;20187;-92
2021/12/12 04:35:35;;;;;;;130.23;48.97;;;3.40;94.40;;;;;;5038065;28;20211;-91
2021/12/12 04:38:04;;;;;;;135.17;50.43;;;3.40;94.40;;;;;;5036115;28;20185;-92
2021/12/12 04:40:33;;;;;;;132.93;47.10;;;3.40;94.40;;;;;;5036624;28;20204;-92
2021/12/12 04:43:00;;;;;;;122.63;47.27;;;3.40;94.40;;;;;;5036575;28;20188;-92
2021/12/12 04:45:51;;;;;;;129.27;49.40;;;3.40;94.40;;;;;;5036400;28;20208;-92
2021/12/12 04:51:32;;;;;;;127.33;47.23;;;3.40;94.40;;;;;;5037637;28;20695;-92
2021/12/12 04:54:07;;;;;;;119.63;45.97;;;3.40;94.50;;;;;;5035723;28;20222;-92
2021/12/12 04:56:55;;;;;;;139.07;48.90;;;3.40;94.50;;;;;;5035751;28;20208;-92
2021/12/12 04:59:33;;;;;;;112.83;43.83;;;3.50;94.40;;;;;;5031519;28;20306;-92
2021/12/12 05:02:02;;;;;;;122.47;47.87;;;3.50;94.40;;;;;;5036984;28;20165;-92
2021/12/12 05:04:46;;;;;;;123.70;44.77;;;3.50;94.40;;;;;;5035664;28;20250;-92
2021/12/12 05:07:20;;;;;;;119.07;43.60;;;3.50;94.40;;;;;;5035548;28;20635;-92
2021/12/12 05:09:58;;;;;;;119.40;46.50;;;3.50;94.40;;;;;;5036763;28;20225;-92
2021/12/12 05:12:39;;;;;;;120.60;47.67;;;3.60;94.40;;;;;;5036677;28;20636;-92
2021/12/12 05:15:14;;;;;;;122.83;47.23;;;3.60;94.40;;;;;;5035309;28;20180;-93
2021/12/12 05:17:48;;;;;;;133.13;50.07;;;3.60;94.40;;;;;;5036923;28;20207;-92
2021/12/12 05:20:21;;;;;;;120.77;47.37;;;3.60;94.40;;;;;;5034675;28;20276;-92
2021/12/12 05:22:53;;;;;;;136.47;48.97;;;3.60;94.40;;;;;;5036105;28;20204;-92
2021/12/12 05:25:26;;;;;;;134.67;48.67;;;3.60;94.50;;;;;;5037840;28;20205;-92
2021/12/12 05:27:55;;;;;;;138.83;48.17;;;3.60;94.60;;;;;;5036337;28;20173;-92
2021/12/12 05:30:27;;;;;;;136.00;52.27;;;3.60;94.60;;;;;;5038313;28;20201;-92
2021/12/12 05:32:54;;;;;;;125.67;49.83;;;3.60;94.70;;;;;;5036276;28;20211;-92
2021/12/12 05:35:27;;;;;;;117.23;44.33;;;3.70;94.80;;;;;;5036328;28;20176;-92
2021/12/12 05:37:55;;;;;;;135.77;48.17;;;3.70;94.80;;;;;;5036717;28;20196;-92
2021/12/12 05:40:23;;;;;;;132.63;50.03;;;3.60;94.80;;;;;;5035106;28;20204;-92
2021/12/12 05:42:52;;;;;;;105.67;36.83;;;3.60;94.80;;;;;;5035370;28;20683;-92
2021/12/12 05:45:18;;;;;;;83.83;30.63;;;3.70;94.90;;;;;;5035300;28;20669;-92
2021/12/12 05:47:45;;;;;;;125.80;51.13;;;3.70;94.90;;;;;;5036037;28;20187;-92
2021/12/12 05:50:13;;;;;;;129.77;51.33;;;3.70;94.90;;;;;;5034695;28;20197;-92
2021/12/12 05:52:41;;;;;;;123.77;50.60;;;3.70;94.90;;;;;;5036961;28;20182;-92
2021/12/12 05:55:08;;;;;;;116.33;48.17;;;3.70;94.90;;;;;;5035950;28;20192;-92
2021/12/12 05:57:35;;;;;;;132.37;51.80;;;3.70;94.90;;;;;;5036362;28;20185;-93
2021/12/12 06:00:04;;;;;;;131.63;48.40;;;3.80;95.00;;;;;;5036094;28;20200;-92
2021/12/12 06:02:32;;;;;;;118.10;48.53;;;3.70;95.00;;;;;;5035403;28;20176;-92
2021/12/12 06:04:58;;;;;;;112.23;44.60;;;3.70;95.00;;;;;;5035274;28;20210;-92
2021/12/12 06:07:25;;;;;;;122.53;53.47;;;3.70;95.00;;;;;;5034058;28;20639;-92
2021/12/12 06:09:51;;;;;;;131.63;53.10;;;3.70;95.10;;;;;;5034383;28;20208;-92
2021/12/12 06:12:19;;;;;;;105.37;44.60;;;3.80;95.10;;;;;;5034659;28;20179;-92
2021/12/12 06:14:45;;;;;;;112.60;48.47;;;3.80;95.10;;;;;;5034671;28;20525;-92
2021/12/12 06:17:13;;;;;;;105.70;43.83;;;3.80;95.10;;;;;;5034649;28;20242;-92
2021/12/12 06:19:41;;;;;;;127.40;51.53;;;3.80;95.10;;;;;;5034856;28;20237;-92
2021/12/12 06:22:08;;;;;;;116.47;47.40;;;3.70;95.10;;;;;;5034945;28;20185;-92
2021/12/12 06:24:35;;;;;;;133.23;49.97;;;3.70;95.20;;;;;;5036105;28;20207;-92
2021/12/12 06:27:05;;;;;;;92.33;41.30;;;3.70;95.20;;;;;;5034961;28;20212;-92
2021/12/12 06:29:31;;;;;;;103.93;42.10;;;3.70;95.20;;;;;;5036331;28;20252;-92
2021/12/12 06:31:57;;;;;;;110.23;45.47;;;3.70;95.30;;;;;;5033804;28;20184;-92
2021/12/12 06:34:23;;;;;;;120.87;46.17;;;3.70;95.20;;;;;;5033821;28;20181;-92
2021/12/12 06:36:51;;;;;;;110.60;44.10;;;3.80;95.30;;;;;;5033524;28;20242;-92
2021/12/12 06:39:17;;;;;;;107.47;44.40;;;3.70;95.30;;;;;;5033798;28;20196;-92
2021/12/12 06:41:43;;;;;;;116.17;45.40;;;3.80;95.30;;;;;;5033851;28;20194;-92
2021/12/12 06:44:11;;;;;;;110.77;43.43;;;3.70;95.30;;;;;;5034157;28;20212;-92
2021/12/12 06:46:40;;;;;;;116.63;44.43;;;3.70;95.30;;;;;;5033723;28;20191;-92
2021/12/12 06:49:08;;;;;;;98.33;39.33;;;3.70;95.30;;;;;;5033764;28;20199;-91
2021/12/12 06:51:37;;;;;;;109.13;44.03;;;3.70;95.30;;;;;;5033655;28;20176;-92
2021/12/12 06:54:04;;;;;;;99.93;40.00;;;3.70;95.30;;;;;;5033494;28;20180;-91
2021/12/12 06:56:31;;;;;;;91.37;37.30;;;3.80;95.30;;;;;;5033414;28;20186;-92
2021/12/12 06:58:58;;;;;;;107.10;39.73;;;3.70;95.30;;;;;;5033407;28;20565;-92
2021/12/12 07:01:29;;;;;;;82.53;36.37;;;3.70;95.20;;;;;;5033352;28;20180;-92
2021/12/12 07:03:56;;;;;;;98.67;41.70;;;3.80;95.20;;;;;;5034411;28;20161;-92
2021/12/12 07:06:26;;;;;;;86.20;33.57;;;3.80;95.20;;;;;;5033687;28;20176;-92
2021/12/12 07:11:23;;;;;;;98.10;38.47;;;3.70;95.20;;;;;;5126564;22;20232;-91
2021/12/12 07:13:50;;;;;;;92.83;38.93;;;3.80;95.20;;;;;;5032604;28;20678;-91
2021/12/12 07:16:17;;;;;;;84.73;36.20;;;3.80;95.20;;;;;;5032645;28;20208;-90
2021/12/12 07:18:43;;;;;;;72.57;31.37;;;3.80;95.20;;;;;;5032616;28;20180;-90
2021/12/12 07:21:12;;;;;;;78.90;33.90;;;3.80;95.20;;;;;;5032471;28;20196;-90
2021/12/12 07:23:39;;;;;;;76.00;31.13;;;3.80;95.20;;;;;;5032346;28;20180;-90
2021/12/12 07:26:07;;;;;;;84.60;35.03;;;3.80;95.20;;;;;;5032121;28;20206;-90
2021/12/12 07:28:35;;;;;;;82.33;32.20;;;3.80;95.10;;;;;;5032405;28;20644;-90
2021/12/12 07:31:04;;;;;;;62.77;25.20;;;3.80;95.10;;;;;;5032239;28;20196;-90
2021/12/12 07:33:32;;;;;;;69.00;26.90;;;3.80;95.10;;;;;;5032361;28;20186;-90
2021/12/12 07:36:01;;;;;;;66.93;28.37;;;3.80;95.10;;;;;;5032385;28;20219;-90
2021/12/12 07:38:28;;;;;;;66.57;25.77;;;3.80;95.10;;;;;;5032225;28;20267;-90
2021/12/12 07:40:55;;;;;;;74.13;31.33;;;3.80;95.10;;;;;;5032389;28;20200;-90
2021/12/12 07:43:21;;;;;;;56.80;22.33;;;3.80;95.10;;;;;;5032015;28;20190;-90
2021/12/12 07:45:47;;;;;;;45.80;20.90;;;3.90;95.20;;;;;;5032205;28;20204;-90
2021/12/12 07:48:13;;;;;;;69.53;29.23;;;3.90;95.30;;;;;;5032271;28;20703;-90
2021/12/12 07:50:43;;;;;;;66.63;26.70;;;3.90;95.30;;;;;;5033594;28;20189;-90
2021/12/12 07:53:09;;;;;;;63.53;25.97;;;3.90;95.30;;;;;;5032151;28;20169;-90
2021/12/12 07:55:35;;;;;;;69.57;28.50;;;3.90;95.40;;;;;;5032986;28;20267;-90
2021/12/12 07:58:08;;;;;;;49.57;22.27;;;3.90;95.40;;;;;;5033561;28;20176;-90
2021/12/12 08:00:36;;;;;;;56.13;22.53;;;3.90;95.50;;;;;;5032012;28;20195;-89
2021/12/12 08:03:02;;;;;;;47.60;21.87;;;3.90;95.50;;;;;;5032011;28;20182;-90
2021/12/12 08:05:29;;;;;;;50.60;20.13;;;3.90;95.60;;;;;;5032055;28;20247;-90
2021/12/12 08:08:06;;;;;;;51.43;20.53;;;3.90;95.60;;;;;;5031998;28;20170;-90
2021/12/12 08:10:33;;;;;;;52.10;18.63;;;3.90;95.70;;;;;;5033208;28;20702;-90
2021/12/12 08:12:59;;;;;;;36.87;17.33;;;4.00;95.70;;;;;;5032050;28;20294;-90
2021/12/12 08:15:28;;;;;;;37.10;18.03;;;4.00;95.70;;;;;;5032259;28;20193;-90
2021/12/12 08:17:56;;;;;;;47.23;22.93;;;4.00;95.70;;;;;;5032112;28;20199;-90
2021/12/12 08:20:25;;;;;;;47.53;21.23;;;4.00;95.80;;;;;;5032289;28;20286;-90
2021/12/12 08:22:51;;;;;;;49.40;25.23;;;4.00;95.80;;;;;;5033380;28;20173;-90
2021/12/12 08:25:19;;;;;;;26.50;11.33;;;4.00;95.80;;;;;;5031770;28;20337;-90
2021/12/12 08:27:45;;;;;;;22.67;12.93;;;4.00;95.80;;;;;;5031821;28;20667;-90
2021/12/12 08:30:15;;;;;;;21.63;12.73;;;4.00;95.90;;;;;;5031652;28;20197;-90
2021/12/12 08:32:43;;;;;;;35.73;12.63;;;4.10;95.90;;;;;;5031712;28;20180;-90
2021/12/12 08:35:11;;;;;;;54.17;19.40;;;4.10;95.90;;;;;;5031673;28;20172;-90
2021/12/12 08:37:38;;;;;;;37.97;17.70;;;4.10;95.90;;;;;;5032085;28;20179;-90
2021/12/12 08:40:05;;;;;;;42.27;19.13;;;4.10;95.90;;;;;;5031593;28;20197;-90
2021/12/12 08:42:31;;;;;;;16.27;9.53;;;4.20;96.00;;;;;;5031704;28;20752;-90
2021/12/12 08:44:59;;;;;;;30.40;13.97;;;4.30;96.00;;;;;;5031909;28;20197;-90
2021/12/12 08:47:26;;;;;;;21.50;8.60;;;4.30;95.90;;;;;;5032884;28;20231;-90
2021/12/12 08:49:52;;;;;;;17.80;7.33;;;4.40;95.90;;;;;;5031599;28;20200;-90
2021/12/12 08:52:29;;;;;;;24.80;10.87;;;4.40;95.80;;;;;;5032805;28;20192;-90
2021/12/12 08:54:55;;;;;;;27.03;12.33;;;4.40;95.80;;;;;;5033011;28;20168;-90
2021/12/12 08:57:38;;;;;;;12.47;6.87;;;4.50;95.80;;;;;;5035467;28;20705;-90
2021/12/12 09:00:11;;;;;;;12.50;6.43;;;4.50;95.80;;;;;;5035205;28;20193;-90
2021/12/12 09:02:37;;;;;;;17.63;7.40;;;4.60;95.70;;;;;;5035079;28;20187;-90
2021/12/12 09:05:13;;;;;;;9.67;6.00;;;4.60;95.70;;;;;;5034899;28;20201;-91
2021/12/12 09:07:44;;;;;;;16.93;7.13;;;4.50;95.70;;;;;;5034969;28;20168;-90
2021/12/12 09:10:28;;;;;;;10.57;6.67;;;4.60;95.70;;;;;;5035342;28;20201;-90
2021/12/12 09:13:06;;;;;;;16.53;5.93;;;4.60;95.70;;;;;;5035009;28;20247;-90
2021/12/12 09:15:40;;;;;;;10.43;4.63;;;4.60;95.60;;;;;;5034805;28;20214;-90
2021/12/12 09:18:46;;;;;;;6.50;4.57;;;4.60;95.70;;;;;;5035024;28;20176;-90
2021/12/12 09:21:25;;;;;;;15.13;6.13;;;4.60;95.60;;;;;;5034991;28;20196;-90
2021/12/12 09:24:05;;;;;;;4.47;3.67;;;4.60;95.60;;;;;;5034891;28;20633;-91
2021/12/12 09:26:37;;;;;;;6.70;5.37;;;4.60;95.70;;;;;;5034665;28;20172;-90
2021/12/12 09:29:27;;;;;;;7.50;3.30;;;4.60;95.70;;;;;;5034610;28;20176;-90
2021/12/12 09:32:05;;;;;;;4.90;3.43;;;4.60;95.70;;;;;;5034566;28;20180;-90
2021/12/12 09:34:47;;;;;;;5.73;3.17;;;4.70;95.70;;;;;;5034579;28;20274;-90
2021/12/12 09:37:21;;;;;;;5.93;3.40;;;4.70;95.70;;;;;;5034860;28;20173;-90
2021/12/12 09:39:53;;;;;;;3.97;3.53;;;4.60;95.70;;;;;;5034399;28;20271;-90
2021/12/12 09:42:35;;;;;;;12.33;4.73;;;4.60;95.70;;;;;;5034561;28;20558;-90
2021/12/12 09:45:11;;;;;;;6.43;3.93;;;4.60;95.70;;;;;;5034330;28;20200;-90
2021/12/12 09:51:22;;;;;;;6.20;4.20;;;4.70;95.70;;;;;;5035712;28;20663;-90
2021/12/12 09:54:00;;;;;;;4.13;2.80;;;4.70;95.70;;;;;;5034377;28;20208;-90
2021/12/12 09:57:02;;;;;;;10.40;3.57;;;4.70;95.70;;;;;;5034862;28;20180;-90
2021/12/12 09:59:54;;;;;;;8.67;4.73;;;4.80;95.70;;;;;;5033946;28;20200;-90
2021/12/12 10:02:29;;;;;;;7.80;4.03;;;4.80;95.70;;;;;;5034042;28;20191;-90
2021/12/12 10:05:14;;;;;;;8.30;6.10;;;4.80;95.70;;;;;;5033909;28;20192;-90
2021/12/12 10:07:49;;;;;;;4.43;3.77;;;4.80;95.70;;;;;;5033277;28;20169;-90
2021/12/12 10:10:38;;;;;;;3.53;2.93;;;4.80;95.70;;;;;;5033586;28;20212;-90
2021/12/12 10:13:24;;;;;;;4.43;4.00;;;4.80;95.70;;;;;;5033741;28;20703;-90
2021/12/12 10:15:56;;;;;;;4.17;3.60;;;4.80;95.70;;;;;;5033779;28;20177;-90
2021/12/12 10:18:40;;;;;;;3.67;3.07;;;4.80;95.70;;;;;;5034747;28;20548;-90
2021/12/12 10:21:12;;;;;;;6.43;4.50;;;4.90;95.80;;;;;;5033942;28;20604;-91
2021/12/12 10:23:41;;;;;;;7.23;5.33;;;4.90;95.80;;;;;;5034522;28;20224;-90
2021/12/12 10:26:15;;;;;;;7.83;4.60;;;4.90;95.90;;;;;;5033721;28;20279;-90
2021/12/12 10:29:16;;;;;;;7.60;5.53;;;4.90;95.90;;;;;;5034381;28;20176;-90
2021/12/12 10:31:53;;;;;;;5.77;3.67;;;4.90;95.90;;;;;;5033375;28;20176;-90
2021/12/12 10:34:31;;;;;;;5.17;3.40;;;4.90;95.90;;;;;;5033447;28;20643;-91
2021/12/12 10:37:21;;;;;;;17.13;6.20;;;4.90;96.00;;;;;;5033719;28;20206;-91
2021/12/12 10:39:52;;;;;;;8.17;5.83;;;4.90;96.00;;;;;;5033257;28;20228;-90
2021/12/12 10:42:26;;;;;;;6.80;6.07;;;4.90;96.00;;;;;;5033442;28;20196;-91
2021/12/12 10:45:04;;;;;;;8.53;6.07;;;4.90;96.00;;;;;;5033489;28;20684;-90
2021/12/12 10:47:47;;;;;;;7.33;3.33;;;5.00;95.90;;;;;;5034051;28;20168;-90
2021/12/12 10:50:31;;;;;;;9.17;4.97;;;5.00;95.90;;;;;;5033622;28;20677;-90
2021/12/12 10:53:18;;;;;;;7.83;6.67;;;5.00;95.90;;;;;;5033952;28;20170;-91
2021/12/12 10:55:57;;;;;;;7.80;5.70;;;5.00;95.90;;;;;;5033025;28;20177;-90
2021/12/12 10:58:40;;;;;;;3.93;3.47;;;5.00;95.90;;;;;;5033043;28;20173;-91
2021/12/12 11:01:13;;;;;;;8.00;6.43;;;5.00;95.90;;;;;;5033241;28;20566;-91
2021/12/12 11:03:47;;;;;;;8.00;7.20;;;5.00;95.90;;;;;;5032866;28;20219;-90
2021/12/12 11:06:28;;;;;;;7.17;5.87;;;5.00;95.90;;;;;;5032887;28;20197;-90
2021/12/12 11:09:02;;;;;;;9.90;6.60;;;5.00;95.90;;;;;;5032784;28;20214;-90
2021/12/12 11:11:39;;;;;;;10.67;7.33;;;5.10;95.80;;;;;;5033206;28;20181;-90
2021/12/12 11:14:28;;;;;;;6.80;6.13;;;5.10;95.90;;;;;;5033168;28;20216;-90
2021/12/12 11:16:55;;;;;;;5.97;5.37;;;5.10;95.90;;;;;;5032696;28;20201;-90
2021/12/12 11:19:48;;;;;;;6.67;4.13;;;5.10;95.90;;;;;;5032045;28;20197;-90
2021/12/12 11:22:29;;;;;;;7.00;4.97;;;5.10;96.00;;;;;;5032568;28;20172;-90
2021/12/12 11:25:11;;;;;;;8.33;6.47;;;5.20;96.00;;;;;;5032584;28;20192;-91
2021/12/12 11:27:46;;;;;;;10.33;8.80;;;5.20;95.90;;;;;;5033758;28;20165;-90
2021/12/12 11:30:35;;;;;;;13.73;9.90;;;5.20;95.90;;;;;;5032371;28;20197;-90
2021/12/12 11:33:04;;;;;;;7.33;6.63;;;5.20;95.90;;;;;;5033273;28;20249;-90
2021/12/12 11:35:30;;;;;;;11.43;7.97;;;5.20;95.90;;;;;;5032358;28;20186;-91
2021/12/12 11:38:03;;;;;;;11.47;10.27;;;5.30;95.90;;;;;;5032308;28;20269;-90
2021/12/12 11:40:45;;;;;;;5.30;4.60;;;5.20;95.90;;;;;;5032190;28;20200;-90
2021/12/12 11:43:37;;;;;;;11.27;7.80;;;5.30;96.00;;;;;;5033540;28;20221;-90
2021/12/12 11:46:18;;;;;;;11.30;7.87;;;5.30;96.00;;;;;;5032186;28;20201;-91
2021/12/12 11:48:59;;;;;;;11.37;8.43;;;5.30;96.00;;;;;;5032800;28;20526;-91
2021/12/12 11:51:33;;;;;;;13.67;10.63;;;5.30;96.00;;;;;;5032203;28;20541;-90
2021/12/12 11:54:15;;;;;;;13.80;9.30;;;5.30;96.00;;;;;;5033365;28;20236;-91
2021/12/12 11:56:47;;;;;;;15.27;11.10;;;5.30;96.10;;;;;;5032167;28;20174;-90
2021/12/12 11:59:30;;;;;;;14.37;12.07;;;5.30;96.10;;;;;;5032205;28;20198;-90
2021/12/12 12:02:08;;;;;;;13.83;11.43;;;5.30;96.20;;;;;;5032100;28;20178;-90
2021/12/12 12:05:06;;;;;;;16.77;13.63;;;5.40;96.20;;;;;;5032103;28;20560;-91
2021/12/12 12:07:49;;;;;;;17.13;13.17;;;5.40;96.20;;;;;;5032081;28;20177;-90
2021/12/12 12:10:20;;;;;;;20.20;14.23;;;5.40;96.30;;;;;;5032011;28;20212;-90
2021/12/12 12:13:20;;;;;;;20.80;12.90;;;5.40;96.30;;;;;;5033862;28;20170;-90
2021/12/12 12:15:55;;;;;;;20.47;15.63;;;5.50;96.30;;;;;;5031974;28;20769;-90
2021/12/12 12:18:50;;;;;;;26.20;18.07;;;5.60;96.40;;;;;;5033136;28;20169;-90
2021/12/12 12:21:25;;;;;;;23.67;16.93;;;5.60;96.40;;;;;;5031735;28;20202;-90
2021/12/12 12:24:25;;;;;;;25.27;18.57;;;5.60;96.40;;;;;;5031948;28;20169;-90
2021/12/12 12:27:04;;;;;;;24.50;18.13;;;5.70;96.40;;;;;;5031882;28;20612;-90
2021/12/12 12:29:33;;;;;;;22.80;17.47;;;5.70;96.40;;;;;;5032647;28;20198;-90
2021/12/12 12:32:07;;;;;;;25.97;19.43;;;5.80;96.50;;;;;;5035613;28;20206;-90
2021/12/12 12:35:10;;;;;;;23.53;17.23;;;5.80;96.50;;;;;;5035700;28;20183;-91
2021/12/12 12:38:07;;;;;;;23.03;16.67;;;5.80;96.50;;;;;;5035726;28;20527;-91
2021/12/12 12:40:51;;;;;;;22.77;15.87;;;5.90;96.50;;;;;;5035445;28;20237;-90
2021/12/12 12:43:54;;;;;;;16.60;11.93;;;5.90;96.40;;;;;;5035538;28;20175;-91
2021/12/12 12:46:57;;;;;;;21.03;15.37;;;5.90;96.40;;;;;;5035382;28;20256;-90
2021/12/12 12:50:03;;;;;;;20.53;14.57;;;5.90;96.30;;;;;;5035670;28;20672;-91
2021/12/12 12:52:29;;;;;;;19.30;15.10;;;5.90;96.30;;;;;;5035447;28;20174;-91
2021/12/12 12:55:29;;;;;;;18.90;15.13;;;5.90;96.30;;;;;;5035360;28;20673;-91
2021/12/12 12:58:10;;;;;;;21.10;15.17;;;6.00;96.30;;;;;;5035189;28;20646;-91
2021/12/12 13:00:37;;;;;;;16.63;13.77;;;6.00;96.30;;;;;;5035092;28;20205;-91
2021/12/12 13:03:12;;;;;;;22.53;15.80;;;6.00;96.30;;;;;;5035227;28;20182;-91
2021/12/12 13:06:02;;;;;;;23.47;16.57;;;6.10;96.30;;;;;;5035125;28;20245;-92
2021/12/12 13:08:50;;;;;;;24.17;14.57;;;6.10;96.30;;;;;;5035158;28;20635;-91
2021/12/12 13:11:36;;;;;;;26.53;15.90;;;6.10;96.20;;;;;;5119313;22;20238;-92
2021/12/12 13:14:20;;;;;;;21.63;15.30;;;6.20;96.20;;;;;;5027409;28;20168;-93
2021/12/12 13:16:58;;;;;;;23.47;16.70;;;6.20;96.20;;;;;;5026191;28;20164;-92
2021/12/12 13:19:34;;;;;;;25.10;18.90;;;6.10;96.20;;;;;;5034959;28;20170;-92
2021/12/12 13:22:11;;;;;;;21.50;16.03;;;6.20;96.20;;;;;;5035133;28;20175;-92
2021/12/12 13:24:40;;;;;;;24.20;18.70;;;6.10;96.20;;;;;;5037910;28;20226;-92
2021/12/12 13:27:32;;;;;;;27.87;19.37;;;6.20;96.20;;;;;;5039291;28;20179;-93
2021/12/12 13:30:08;;;;;;;27.03;18.77;;;6.20;96.20;;;;;;5039720;28;20224;-94